Time;durP1;ratioP1;P1;durP2;ratioP2;P2;SDS_P1;SDS_P2;PMS_P1;PMS_P2;Temp;Humidity;BMP_temperature;BMP_pressure;BME280_temperature;BME280_humidity;BME280_pressure;Samples;Min_cycle;Max_cycle;Signal;HPM_P1;HPM_P2
2023/09/28 00:01:48;;;;;;;8.73;5.03;;;;;;;26.11;40.41;100172.84;4499525;31;33430;-67
2023/09/28 00:04:17;;;;;;;7.87;4.43;;;;;;;26.11;40.32;100172.84;4499433;31;33794;-67
2023/09/28 00:06:45;;;;;;;9.27;4.68;;;;;;;26.14;40.20;100164.12;4499453;31;33884;-68
2023/09/28 00:09:13;;;;;;;7.90;4.28;;;;;;;26.11;40.30;100163.78;4499555;31;34223;-67
2023/09/28 00:11:41;;;;;;;6.87;4.78;;;;;;;26.10;40.37;100171.16;4484763;31;32988;-68
2023/09/28 00:14:08;;;;;;;8.23;5.03;;;;;;;26.09;40.41;100169.47;4499470;31;33070;-67
2023/09/28 00:16:36;;;;;;;7.72;4.43;;;;;;;26.10;40.40;100173.06;4499428;31;34861;-67
2023/09/28 00:19:08;;;;;;;8.15;4.72;;;;;;;26.10;40.39;100164.84;4499221;31;34143;-69
2023/09/28 00:21:36;;;;;;;8.38;4.87;;;;;;;26.09;40.35;100163.19;4499249;31;34161;-67
2023/09/28 00:24:04;;;;;;;9.07;4.47;;;;;;;26.11;40.44;100166.50;4499285;31;33718;-68
2023/09/28 00:26:32;;;;;;;7.25;4.45;;;;;;;26.09;40.52;100168.66;4499225;31;34398;-67
2023/09/28 00:28:59;;;;;;;8.13;4.87;;;;;;;26.10;40.47;100159.37;4499185;31;35019;-68
2023/09/28 00:31:28;;;;;;;8.20;4.78;;;;;;;26.11;40.35;100158.31;4498955;31;35083;-68
2023/09/28 00:33:56;;;;;;;9.63;4.57;;;;;;;26.09;40.37;100158.53;4485119;31;33698;-67
2023/09/28 00:36:24;;;;;;;8.55;4.62;;;;;;;26.10;40.38;100162.13;4499175;31;34049;-67
2023/09/28 00:38:51;;;;;;;7.65;4.80;;;;;;;26.08;40.54;100162.34;4499004;31;34009;-69
2023/09/28 00:41:19;;;;;;;8.50;5.03;;;;;;;26.11;40.44;100161.03;4498987;31;34741;-68
2023/09/28 00:43:47;;;;;;;9.55;4.82;;;;;;;26.16;40.07;100162.03;4498899;31;33477;-69
2023/09/28 00:46:16;;;;;;;8.10;5.20;;;;;;;26.11;40.41;100158.31;4484887;31;34851;-67
2023/09/28 00:49:05;;;;;;;6.93;4.65;;;;;;;26.09;40.46;100158.53;4498761;31;33837;-67
2023/09/28 00:51:33;;;;;;;7.97;4.32;;;;;;;26.09;40.43;100150.34;4473305;31;34333;-68
2023/09/28 00:54:01;;;;;;;9.13;5.18;;;;;;;26.09;40.51;100152.25;4498878;31;33339;-67
2023/09/28 00:56:29;;;;;;;6.78;4.37;;;;;;;26.09;40.62;100160.47;4471769;31;34046;-71
2023/09/28 00:58:58;;;;;;;6.70;4.55;;;;;;;26.08;40.52;100156.88;4473511;31;34236;-67
2023/09/28 01:01:26;;;;;;;7.47;4.57;;;;;;;26.09;40.35;100158.53;4500846;31;34109;-68
2023/09/28 01:03:55;;;;;;;6.50;4.65;;;;;;;26.10;40.24;100160.22;4486800;31;33288;-68
2023/09/28 01:06:24;;;;;;;6.32;4.32;;;;;;;26.10;40.14;100159.37;4486584;31;34725;-68
2023/09/28 01:08:55;;;;;;;7.78;4.97;;;;;;;26.10;40.37;100154.75;4500884;31;33893;-68
2023/09/28 01:11:24;;;;;;;7.00;4.62;;;;;;;26.09;40.41;100154.97;4500769;31;33597;-67
2023/09/28 01:13:52;;;;;;;6.60;4.75;;;;;;;26.07;40.48;100157.12;4500775;31;34583;-69
2023/09/28 01:16:21;;;;;;;7.53;4.72;;;;;;;26.06;40.40;100147.25;4500720;31;33917;-67
2023/09/28 01:18:48;;;;;;;7.43;4.45;;;;;;;26.06;40.40;100149.97;4500674;31;33999;-67
2023/09/28 01:21:16;;;;;;;7.90;4.93;;;;;;;26.07;40.41;100148.94;4486342;31;34105;-70
2023/09/28 01:23:45;;;;;;;7.80;4.85;;;;;;;26.06;40.46;100150.81;4484916;32;33628;-66
2023/09/28 01:26:12;;;;;;;6.55;4.75;;;;;;;26.07;40.30;100140.72;4484759;32;33756;-66
2023/09/28 01:28:41;;;;;;;6.75;4.03;;;;;;;26.06;40.41;100145.34;4484916;32;34918;-66
2023/09/28 01:31:10;;;;;;;9.15;4.90;;;;;;;26.04;40.44;100147.47;4484798;32;34179;-68
2023/09/28 01:33:37;;;;;;;7.12;4.55;;;;;;;26.04;40.63;100141.19;4484542;32;34543;-66
2023/09/28 01:36:07;;;;;;;7.05;4.32;;;;;;;26.04;40.57;100144.75;4485056;31;32512;-67
2023/09/28 01:38:39;;;;;;;7.97;4.43;;;;;;;26.04;40.50;100150.22;4484754;32;35002;-69
2023/09/28 01:41:07;;;;;;;5.43;3.80;;;;;;;26.03;40.57;100145.81;4484625;32;34184;-69
2023/09/28 01:43:36;;;;;;;7.90;4.40;;;;;;;26.04;40.39;100147.47;4484799;32;34522;-68
2023/09/28 01:46:04;;;;;;;9.10;4.93;;;;;;;26.07;40.20;100154.41;4484682;32;34310;-68
2023/09/28 01:48:32;;;;;;;6.87;4.18;;;;;;;26.07;40.06;100162.59;4484481;32;33911;-67
2023/09/28 01:51:01;;;;;;;8.00;5.00;;;;;;;26.08;40.10;100164.25;4484794;32;34754;-68
2023/09/28 01:53:29;;;;;;;7.85;4.43;;;;;;;26.07;40.10;100157.12;4483371;32;33303;-70
2023/09/28 01:55:59;;;;;;;9.90;4.65;;;;;;;26.07;40.05;100166.16;4484541;32;33589;-67
2023/09/28 01:58:26;;;;;;;;;;;;;;;26.04;40.07;100163.91;4484854;32;34058;-68
2023/09/28 02:00:54;;;;;;;6.35;4.47;;;;;;;26.13;39.72;100162.47;4485028;32;34946;-67
2023/09/28 02:03:22;;;;;;;8.27;4.80;;;;;;;26.04;40.19;100163.06;4484554;32;33581;-66
2023/09/28 02:05:49;;;;;;;10.07;5.50;;;;;;;26.01;40.38;100169.81;4484920;32;33949;-67
2023/09/28 02:08:17;;;;;;;9.32;5.10;;;;;;;25.99;40.28;100160.22;4484545;32;34658;-67
2023/09/28 02:10:46;;;;;;;13.02;4.82;;;;;;;25.98;40.20;100161.28;4484599;32;33830;-67
2023/09/28 02:13:14;;;;;;;7.85;5.10;;;;;;;25.98;40.23;100158.53;4484707;32;33570;-67
2023/09/28 02:15:42;;;;;;;8.07;4.72;;;;;;;25.97;40.18;100154.12;4484361;32;34694;-67
2023/09/28 02:18:10;;;;;;;11.75;4.62;;;;;;;25.96;40.19;100150.56;4484531;32;33607;-67
2023/09/28 02:20:37;;;;;;;10.05;5.43;;;;;;;25.96;40.24;100161.50;4484451;32;33668;-66
2023/09/28 02:23:28;;;;;;;8.05;5.03;;;;;;;25.95;40.25;100157.94;4484246;32;34503;-67
2023/09/28 02:25:57;;;;;;;9.98;4.75;;;;;;;25.98;40.18;100158.53;4484693;32;34794;-67
2023/09/28 02:28:25;;;;;;;7.95;4.80;;;;;;;25.95;40.21;100159.84;4470199;32;33904;-67
2023/09/28 02:30:53;;;;;;;7.03;5.15;;;;;;;25.94;40.09;100167.22;4484611;32;34298;-67
2023/09/28 02:33:20;;;;;;;8.98;4.78;;;;;;;25.94;40.16;100164.47;4496145;31;33817;-67
2023/09/28 02:35:48;;;;;;;8.65;5.30;;;;;;;25.95;40.12;100176.25;4499989;31;34645;-68
2023/09/28 02:38:16;;;;;;;11.48;5.37;;;;;;;25.94;40.16;100167.22;4500127;31;34821;-67
2023/09/28 02:40:44;;;;;;;7.68;4.95;;;;;;;25.95;40.04;100168.03;4484591;31;34881;-67
2023/09/28 02:43:12;;;;;;;8.40;5.07;;;;;;;25.94;40.06;100171.84;4500214;31;33705;-68
2023/09/28 02:45:39;;;;;;;7.05;4.43;;;;;;;25.94;39.92;100164.47;4500117;31;34057;-68
2023/09/28 02:48:08;;;;;;;7.72;4.70;;;;;;;25.94;40.00;100166.37;4499885;31;34004;-68
2023/09/28 02:50:36;;;;;;;7.50;5.62;;;;;;;25.93;40.04;100160.09;4485533;31;33200;-68
2023/09/28 02:53:05;;;;;;;7.55;5.10;;;;;;;25.91;40.01;100156.72;4500011;31;33986;-68
2023/09/28 02:55:32;;;;;;;7.57;4.47;;;;;;;25.92;39.97;100160.28;4500105;31;33670;-68
2023/09/28 02:58:01;;;;;;;10.75;4.72;;;;;;;25.90;39.97;100160.53;4499868;31;33728;-68
2023/09/28 03:00:32;;;;;;;7.60;5.07;;;;;;;25.91;39.98;100158.63;4499998;31;34022;-68
2023/09/28 03:03:09;;;;;;;9.10;5.05;;;;;;;25.89;40.05;100158.87;4500129;31;33473;-67
2023/09/28 03:05:38;;;;;;;9.25;5.85;;;;;;;25.89;40.04;100164.34;4462089;31;33918;-67
2023/09/28 03:08:11;;;;;;;9.95;4.75;;;;;;;25.91;39.97;100162.19;4498560;31;33997;-68
2023/09/28 03:10:42;;;;;;;7.80;4.93;;;;;;;25.91;39.89;100156.72;4473329;31;33786;-67
2023/09/28 03:13:11;;;;;;;8.32;5.53;;;;;;;25.89;40.02;100156.16;4485644;31;33439;-67
2023/09/28 03:15:41;;;;;;;8.80;5.50;;;;;;;25.89;39.88;100153.41;4500029;31;34779;-68
2023/09/28 03:18:10;;;;;;;8.13;5.12;;;;;;;25.91;39.83;100154.00;4499947;31;34427;-68
2023/09/28 03:20:38;;;;;;;10.68;5.12;;;;;;;25.92;39.86;100160.28;4499264;31;34799;-68
2023/09/28 03:23:07;;;;;;;8.63;4.90;;;;;;;25.92;39.84;100163.03;4498261;31;34414;-69
2023/09/28 03:25:34;;;;;;;8.18;5.15;;;;;;;25.90;39.83;100163.28;4498503;31;33411;-68
2023/09/28 03:28:04;;;;;;;7.68;5.00;;;;;;;25.91;39.81;100167.66;4495664;31;33725;-67
2023/09/28 03:30:32;;;;;;;8.85;5.03;;;;;;;25.90;39.75;100168.75;4483876;32;34909;-67
2023/09/28 03:32:59;;;;;;;12.45;5.50;;;;;;;25.93;39.80;100172.91;4484263;32;33337;-67
2023/09/28 03:35:27;;;;;;;8.65;4.55;;;;;;;25.89;39.78;100174.44;4482754;32;34657;-67
2023/09/28 03:37:58;;;;;;;8.88;4.85;;;;;;;25.89;39.75;100175.28;4483805;32;34432;-67
2023/09/28 03:40:33;;;;;;;11.77;5.43;;;;;;;25.87;39.79;100180.13;4484065;32;34152;-68
2023/09/28 03:43:01;;;;;;;10.13;5.22;;;;;;;25.87;39.70;100191.06;4482729;32;34295;-67
2023/09/28 03:45:29;;;;;;;8.88;5.40;;;;;;;25.87;39.69;100190.22;4468985;32;33351;-67
2023/09/28 03:47:57;;;;;;;8.02;5.28;;;;;;;25.87;39.61;100187.50;4483770;32;34079;-67
2023/09/28 03:50:25;;;;;;;9.95;5.20;;;;;;;25.85;39.68;100189.66;4469524;32;34183;-67
2023/09/28 03:52:52;;;;;;;6.75;4.78;;;;;;;25.92;39.53;100195.84;4483802;32;34395;-67
2023/09/28 03:55:21;;;;;;;8.40;5.40;;;;;;;25.97;39.48;100195.12;4487345;31;34415;-67
2023/09/28 03:57:50;;;;;;;8.15;5.30;;;;;;;25.93;39.54;100194.78;4485240;31;34929;-67
2023/09/28 04:00:19;;;;;;;9.98;6.05;;;;;;;25.90;39.56;100184.31;4499524;31;34508;-67
2023/09/28 04:02:49;;;;;;;9.80;5.47;;;;;;;25.87;39.61;100182.87;4472402;31;33692;-67
2023/09/28 04:05:21;;;;;;;9.10;5.32;;;;;;;25.87;39.63;100192.97;4485733;31;34667;-67
2023/09/28 04:07:49;;;;;;;10.77;5.18;;;;;;;25.87;39.60;100192.97;4485106;31;34766;-67
2023/09/28 04:10:17;;;;;;;8.57;5.37;;;;;;;25.86;39.61;100194.03;4499411;31;34011;-67
2023/09/28 04:12:50;;;;;;;9.43;5.30;;;;;;;25.84;39.58;100190.72;4499335;31;33486;-67
2023/09/28 04:15:18;;;;;;;7.57;5.30;;;;;;;25.84;39.59;100185.25;4497959;31;33748;-67
2023/09/28 04:17:45;;;;;;;8.27;5.20;;;;;;;25.84;39.60;100186.09;4490381;31;34045;-67
2023/09/28 04:20:13;;;;;;;9.95;5.50;;;;;;;25.83;39.59;100187.13;4486341;31;34271;-67
2023/09/28 04:22:41;;;;;;;9.20;5.22;;;;;;;25.83;39.53;100194.50;4482196;31;33628;-67
2023/09/28 04:25:10;;;;;;;9.13;5.55;;;;;;;25.83;39.39;100194.50;4482016;32;34789;-67
2023/09/28 04:27:38;;;;;;;7.30;5.25;;;;;;;25.82;39.50;100196.41;4484067;31;34775;-67
2023/09/28 04:30:08;;;;;;;8.05;5.25;;;;;;;25.83;39.51;100202.69;4483310;32;34839;-67
2023/09/28 04:32:36;;;;;;;9.80;5.00;;;;;;;25.82;39.52;100190.09;4481793;32;33675;-68
2023/09/28 04:35:07;;;;;;;10.45;5.35;;;;;;;25.83;39.48;100191.75;4481984;32;33965;-67
2023/09/28 04:37:34;;;;;;;9.13;4.80;;;;;;;25.83;39.55;100197.22;4483251;32;33896;-67
2023/09/28 04:40:03;;;;;;;10.45;5.40;;;;;;;25.83;39.58;100195.31;4482966;32;34135;-67
2023/09/28 04:42:31;;;;;;;8.68;5.45;;;;;;;25.83;39.53;100195.31;4483159;32;34694;-67
2023/09/28 04:44:59;;;;;;;10.63;5.35;;;;;;;25.82;39.52;100190.09;4475436;32;33939;-66
2023/09/28 04:47:27;;;;;;;10.27;5.30;;;;;;;25.82;39.40;100203.78;4467192;32;34875;-67
2023/09/28 04:49:55;;;;;;;15.93;5.87;;;;;;;25.82;39.41;100214.72;4467230;32;33828;-67
2023/09/28 04:52:23;;;;;;;10.13;5.20;;;;;;;25.79;39.38;100205.09;4466003;32;32483;-67
2023/09/28 04:54:52;;;;;;;9.52;5.95;;;;;;;25.78;39.35;100206.13;4467123;32;34088;-67
2023/09/28 04:57:20;;;;;;;9.75;5.57;;;;;;;25.82;39.24;100207.34;4467185;32;34864;-67
2023/09/28 04:59:47;;;;;;;8.95;5.45;;;;;;;25.80;39.24;100212.22;4467024;32;34233;-67
2023/09/28 05:02:15;;;;;;;10.07;5.68;;;;;;;25.79;39.27;100210.56;4467096;32;34406;-66
2023/09/28 05:04:43;;;;;;;10.77;6.22;;;;;;;25.79;39.22;100218.75;4466688;32;34013;-66
2023/09/28 05:07:11;;;;;;;11.00;5.40;;;;;;;25.79;39.26;100220.66;4466373;32;33669;-66
2023/09/28 05:09:38;;;;;;;8.63;5.47;;;;;;;25.78;39.23;100217.06;4466435;32;34759;-67
2023/09/28 05:12:06;;;;;;;15.05;5.72;;;;;;;25.77;39.26;100222.78;4466608;32;33852;-67
2023/09/28 05:14:34;;;;;;;11.25;5.50;;;;;;;25.77;39.21;100225.50;4466346;32;34784;-67
2023/09/28 05:17:01;;;;;;;14.87;5.55;;;;;;;25.75;39.14;100208.50;4465503;32;33827;-68
2023/09/28 05:19:30;;;;;;;7.65;5.03;;;;;;;25.75;39.19;100216.69;4467648;31;34108;-67
2023/09/28 05:21:58;;;;;;;11.35;5.50;;;;;;;25.74;39.17;100225.94;4480427;31;33609;-68
2023/09/28 05:24:25;;;;;;;10.07;4.97;;;;;;;25.73;39.13;100227.84;4481885;31;33483;-67
2023/09/28 05:26:54;;;;;;;13.30;5.55;;;;;;;25.74;39.09;100231.41;4477364;31;33717;-68
2023/09/28 05:29:22;;;;;;;9.32;5.95;;;;;;;25.73;38.96;100227.00;4465124;31;34904;-67
2023/09/28 05:31:50;;;;;;;10.90;5.35;;;;;;;25.70;38.95;100233.78;4467652;31;34027;-68
2023/09/28 05:34:18;;;;;;;11.57;5.60;;;;;;;25.70;38.97;100233.78;4475636;31;33601;-68
2023/09/28 05:36:46;;;;;;;11.18;5.68;;;;;;;25.68;38.89;100231.25;4466458;31;35007;-68
2023/09/28 05:39:13;;;;;;;8.90;5.47;;;;;;;25.68;38.80;100234.00;4466412;32;34710;-68
2023/09/28 05:41:41;;;;;;;9.02;5.30;;;;;;;25.70;38.68;100244.72;4477072;31;33837;-67
2023/09/28 05:44:09;;;;;;;9.88;5.25;;;;;;;25.69;38.74;100232.94;4483881;32;34106;-68
2023/09/28 05:46:40;;;;;;;10.60;5.95;;;;;;;25.69;38.68;100241.16;4468996;32;32845;-68
2023/09/28 05:49:08;;;;;;;8.82;5.18;;;;;;;25.67;38.74;100235.06;4477212;31;34361;-68
2023/09/28 05:51:35;;;;;;;10.68;5.75;;;;;;;25.64;38.76;100232.78;4478420;31;34405;-67
2023/09/28 05:54:03;;;;;;;9.68;5.47;;;;;;;25.68;38.74;100235.88;4468867;32;33776;-68
2023/09/28 05:56:31;;;;;;;11.80;5.47;;;;;;;25.68;38.63;100225.78;4468863;31;34860;-67
2023/09/28 05:58:59;;;;;;;14.48;5.18;;;;;;;25.70;38.57;100228.31;4468865;32;33769;-68
2023/09/28 06:01:29;;;;;;;7.90;4.80;;;;;;;25.68;38.67;100234.00;4474547;31;34493;-68
2023/09/28 06:03:57;;;;;;;7.90;4.97;;;;;;;25.66;38.69;100238.03;4468962;32;33956;-68
2023/09/28 06:06:25;;;;;;;10.05;5.37;;;;;;;25.65;38.68;100242.66;4468114;31;34455;-67
2023/09/28 06:08:52;;;;;;;8.88;5.78;;;;;;;25.65;38.77;100245.41;4474286;31;33677;-68
2023/09/28 06:11:21;;;;;;;10.10;5.82;;;;;;;25.64;38.83;100251.06;4474537;31;33438;-68
2023/09/28 06:13:48;;;;;;;10.15;5.72;;;;;;;25.63;38.90;100257.63;4479997;31;34287;-67
2023/09/28 06:16:36;;;;;;;11.77;6.00;;;;;;;25.61;38.94;100255.13;4467779;32;33529;-68
2023/09/28 06:19:04;;;;;;;7.78;4.85;;;;;;;25.62;38.93;100258.69;4468301;32;33683;-68
2023/09/28 06:21:32;;;;;;;9.73;5.60;;;;;;;25.60;38.96;100249.88;4468811;32;33402;-68
2023/09/28 06:24:01;;;;;;;11.63;6.18;;;;;;;25.60;39.01;100256.19;4476479;31;34686;-68
2023/09/28 06:26:29;;;;;;;8.27;5.95;;;;;;;25.61;38.98;100255.13;4481499;31;34020;-68
2023/09/28 06:29:09;;;;;;;10.95;5.90;;;;;;;25.63;39.00;100254.88;4467672;32;34140;-68
2023/09/28 06:31:37;;;;;;;11.73;5.65;;;;;;;25.62;39.02;100259.53;4475456;31;33625;-68
2023/09/28 06:34:06;;;;;;;9.65;6.12;;;;;;;25.61;39.06;100249.66;4468634;32;33869;-68
2023/09/28 06:36:34;;;;;;;10.10;5.85;;;;;;;25.61;39.09;100262.50;4467017;32;34786;-68
2023/09/28 06:39:09;;;;;;;12.13;6.07;;;;;;;25.62;39.18;100259.53;4468536;31;34063;-67
2023/09/28 06:41:38;;;;;;;7.32;4.90;;;;;;;25.62;39.17;100256.78;4481643;31;33367;-67
2023/09/28 06:44:06;;;;;;;10.27;5.75;;;;;;;25.61;39.19;100257.84;4483884;31;34138;-68
2023/09/28 06:46:34;;;;;;;11.30;5.82;;;;;;;25.60;39.25;100260.78;4474025;31;33680;-67
2023/09/28 06:49:05;;;;;;;9.32;5.97;;;;;;;25.60;39.25;100260.78;4482884;32;34564;-68
2023/09/28 06:51:34;;;;;;;14.27;6.20;;;;;;;25.60;39.30;100258.06;4478288;32;34428;-68
2023/09/28 06:54:02;;;;;;;16.00;6.10;;;;;;;25.60;39.33;100263.53;4468462;32;33461;-67
2023/09/28 06:56:30;;;;;;;10.68;6.62;;;;;;;25.61;39.34;100265.22;4474385;31;34378;-67
2023/09/28 06:58:58;;;;;;;10.15;6.07;;;;;;;25.58;39.40;100269.22;4484274;32;33947;-68
2023/09/28 07:01:26;;;;;;;9.13;5.75;;;;;;;25.58;39.39;100262.94;4476912;31;33665;-68
2023/09/28 07:03:53;;;;;;;9.45;5.80;;;;;;;25.58;39.43;100261.03;4468467;32;34567;-68
2023/09/28 07:06:21;;;;;;;9.05;5.78;;;;;;;25.58;39.38;100263.78;4480206;31;33738;-68
2023/09/28 07:08:49;;;;;;;9.98;6.05;;;;;;;25.59;39.38;100265.44;4482898;31;34424;-68
2023/09/28 07:11:16;;;;;;;13.18;6.47;;;;;;;25.57;39.42;100274.94;4469596;31;35058;-67
2023/09/28 07:13:44;;;;;;;13.98;6.00;;;;;;;25.56;39.52;100273.28;4468297;32;33742;-68
2023/09/28 07:16:12;;;;;;;11.60;5.80;;;;;;;25.55;39.57;100283.34;4480252;31;34105;-67
2023/09/28 07:18:39;;;;;;;10.02;6.12;;;;;;;25.54;39.55;100278.13;4483716;31;34387;-68
2023/09/28 07:21:09;;;;;;;11.43;5.78;;;;;;;25.57;39.56;100286.69;4471446;31;33639;-68
2023/09/28 07:23:39;;;;;;;10.48;5.70;;;;;;;25.57;39.55;100292.16;4467257;32;33370;-67
2023/09/28 07:26:18;;;;;;;10.32;5.72;;;;;;;25.55;39.57;100286.06;4479037;31;34705;-68
2023/09/28 07:28:48;;;;;;;11.38;6.25;;;;;;;25.58;39.61;100284.81;4472675;32;34757;-68
2023/09/28 07:31:15;;;;;;;7.50;5.00;;;;;;;25.55;39.57;100286.06;4467079;31;34256;-68
2023/09/28 07:33:43;;;;;;;9.60;6.07;;;;;;;25.57;39.60;100288.59;4468184;32;33871;-68
2023/09/28 07:36:11;;;;;;;9.77;5.70;;;;;;;25.54;39.58;100292.62;4478903;31;33902;-68
2023/09/28 07:38:39;;;;;;;11.38;5.53;;;;;;;25.55;39.56;100297.00;4483931;32;34249;-68
2023/09/28 07:41:06;;;;;;;9.88;6.40;;;;;;;25.54;39.65;100289.88;4470213;31;34394;-68
2023/09/28 07:43:34;;;;;;;11.05;5.80;;;;;;;25.54;39.74;100289.88;4468275;32;34587;-67
2023/09/28 07:46:02;;;;;;;9.52;5.35;;;;;;;25.61;39.59;100300.75;4477336;31;34387;-68
2023/09/28 07:48:30;;;;;;;11.60;6.20;;;;;;;25.66;39.38;100298.16;4461508;32;209910;-68
2023/09/28 07:50:58;;;;;;;9.02;5.62;;;;;;;25.68;39.34;100298.75;4470429;31;33428;-68
2023/09/28 07:53:26;;;;;;;11.23;6.60;;;;;;;25.70;39.41;100293.91;4485749;31;33512;-67
2023/09/28 07:55:54;;;;;;;10.63;6.10;;;;;;;25.72;39.37;100291.75;4467835;32;34656;-68
2023/09/28 07:58:22;;;;;;;10.55;5.93;;;;;;;25.73;39.32;100295.31;4479391;31;33058;-67
2023/09/28 08:00:53;;;;;;;8.65;5.75;;;;;;;25.74;39.35;100292.38;4483664;32;33568;-67
2023/09/28 08:03:21;;;;;;;8.98;5.78;;;;;;;25.76;39.34;100292.19;4482928;31;34553;-67
2023/09/28 08:05:49;;;;;;;8.55;5.57;;;;;;;25.76;39.24;100297.66;4476332;31;34094;-67
2023/09/28 08:08:18;;;;;;;11.00;5.07;;;;;;;25.77;39.25;100299.31;4483492;32;34172;-68
2023/09/28 08:10:47;;;;;;;10.75;5.47;;;;;;;25.77;39.26;100291.94;4482932;31;34218;-67
2023/09/28 08:13:15;;;;;;;11.18;5.80;;;;;;;25.77;39.24;100293.84;4483651;32;34609;-68
2023/09/28 08:15:44;;;;;;;9.95;5.93;;;;;;;25.78;39.32;100292.78;4472988;32;33623;-67
2023/09/28 08:18:13;;;;;;;;;;;;;;;25.79;39.31;100295.28;4474767;31;34336;-67
2023/09/28 08:20:41;;;;;;;8.75;5.90;;;;;;;25.89;39.15;100303.78;4480428;31;33337;-67
2023/09/28 08:23:26;;;;;;;10.00;5.25;;;;;;;25.81;39.22;100303.25;4467845;32;33563;-68
2023/09/28 08:25:55;;;;;;;10.82;5.32;;;;;;;25.80;39.37;100296.12;4476796;31;33988;-67
2023/09/28 08:28:23;;;;;;;7.93;5.80;;;;;;;25.79;39.38;100294.47;4483211;32;34342;-68
2023/09/28 08:30:53;;;;;;;10.63;5.65;;;;;;;25.80;39.46;100298.84;4473643;31;34255;-68
2023/09/28 08:33:24;;;;;;;11.23;5.93;;;;;;;25.80;39.51;100304.31;4482585;31;33503;-67
2023/09/28 08:35:52;;;;;;;10.45;5.82;;;;;;;25.80;39.35;100304.31;4471963;32;34819;-67
2023/09/28 08:38:20;;;;;;;11.45;5.40;;;;;;;25.80;39.37;100301.59;4467639;32;34041;-67
2023/09/28 08:40:53;;;;;;;10.45;5.78;;;;;;;25.80;39.37;100298.84;4474601;32;33693;-67
2023/09/28 08:43:21;;;;;;;8.80;5.65;;;;;;;25.79;39.38;100300.75;4482049;32;33504;-67
2023/09/28 08:45:50;;;;;;;9.30;4.93;;;;;;;25.81;39.43;100295.06;4465463;32;35538;-66
2023/09/28 08:48:18;;;;;;;11.48;5.62;;;;;;;25.80;39.48;100296.97;4453315;32;34274;-67
2023/09/28 08:50:47;;;;;;;8.85;5.82;;;;;;;25.81;39.41;100295.06;4454104;32;33499;-68
2023/09/28 08:53:15;;;;;;;8.50;5.57;;;;;;;25.81;39.36;100287.69;4466129;32;33972;-67
2023/09/28 08:55:43;;;;;;;8.52;5.93;;;;;;;25.81;39.28;100292.31;4464819;32;34718;-68
2023/09/28 08:58:10;;;;;;;9.50;5.68;;;;;;;25.81;39.30;100290.41;4453501;32;34894;-68
2023/09/28 09:00:38;;;;;;;10.63;5.55;;;;;;;25.82;39.28;100283.03;4467301;31;34469;-67
2023/09/28 09:03:06;;;;;;;10.23;5.60;;;;;;;25.77;39.42;100286.47;4465872;32;33806;-67
2023/09/28 09:05:36;;;;;;;9.50;5.95;;;;;;;25.72;39.50;100280.84;4463398;32;33467;-67
2023/09/28 09:08:04;;;;;;;9.13;5.28;;;;;;;25.70;39.56;100288.44;4465961;32;33995;-67
2023/09/28 09:10:31;;;;;;;9.80;5.55;;;;;;;25.69;39.60;100282.16;4479883;31;33278;-68
2023/09/28 09:13:00;;;;;;;9.65;5.85;;;;;;;25.67;39.51;100278.78;4481657;32;33912;-67
2023/09/28 09:15:27;;;;;;;9.73;6.28;;;;;;;25.66;39.53;100277.13;4482302;31;33872;-68
2023/09/28 09:18:00;;;;;;;9.50;5.93;;;;;;;25.67;39.59;100283.41;4482585;31;34190;-68
2023/09/28 09:20:29;;;;;;;10.05;5.57;;;;;;;25.68;39.52;100285.91;4484656;31;34437;-68
2023/09/28 09:23:10;;;;;;;10.15;6.03;;;;;;;25.67;39.58;100280.69;4484874;32;33898;-68
2023/09/28 09:25:47;;;;;;;12.10;6.07;;;;;;;25.68;39.58;100282.34;4475192;32;33472;-68
2023/09/28 09:28:32;;;;;;;9.82;6.30;;;;;;;25.66;39.66;100281.75;4467624;31;34012;-67
2023/09/28 09:31:01;;;;;;;8.82;5.87;;;;;;;25.66;39.67;100277.13;4469169;32;34449;-68
2023/09/28 09:33:28;;;;;;;9.50;6.22;;;;;;;25.73;39.59;100279.75;4456365;31;34724;-67
2023/09/28 09:35:56;;;;;;;8.70;6.05;;;;;;;25.78;39.48;100276.38;4471517;32;35046;-68
2023/09/28 09:38:28;;;;;;;9.43;6.00;;;;;;;25.80;39.44;100282.47;4454504;32;34996;-67
2023/09/28 09:41:04;;;;;;;10.75;6.20;;;;;;;25.83;39.44;100281.97;4467206;32;33984;-68
2023/09/28 09:43:34;;;;;;;15.10;6.30;;;;;;;25.85;39.40;100277.13;4469038;32;33923;-67
2023/09/28 09:46:09;;;;;;;8.50;5.95;;;;;;;25.85;39.40;100279.88;4470219;31;33995;-67
2023/09/28 09:48:44;;;;;;;10.38;6.20;;;;;;;25.87;39.44;100272.25;4500415;31;34169;-68
2023/09/28 09:51:12;;;;;;;10.85;6.18;;;;;;;25.88;39.44;100279.38;4473992;31;33706;-67
2023/09/28 09:53:44;;;;;;;11.53;6.50;;;;;;;25.89;39.42;100273.69;4473419;31;33874;-68
2023/09/28 09:56:13;;;;;;;10.10;6.12;;;;;;;25.91;39.34;100277.03;4473191;31;33937;-67
2023/09/28 09:58:48;;;;;;;12.63;6.28;;;;;;;25.87;39.46;100280.44;4473342;31;34021;-67
2023/09/28 10:01:17;;;;;;;12.65;6.55;;;;;;;25.82;39.61;100272.13;4461233;31;32617;-67
2023/09/28 10:03:52;;;;;;;16.30;7.20;;;;;;;25.87;39.52;100277.72;4486372;31;33442;-68
2023/09/28 10:06:21;;;;;;;13.13;6.15;;;;;;;25.90;39.44;100272.62;4460643;31;32996;-68
2023/09/28 10:08:50;;;;;;;14.43;6.70;;;;;;;25.94;39.47;100273.00;4460232;31;33958;-67
2023/09/28 10:11:17;;;;;;;12.57;6.30;;;;;;;25.91;39.64;100278.94;4473222;31;33403;-67
2023/09/28 10:13:48;;;;;;;9.90;6.15;;;;;;;25.88;39.71;100273.91;4472430;31;34680;-67
2023/09/28 10:16:17;;;;;;;12.30;6.10;;;;;;;25.85;39.54;100268.94;4482774;31;33912;-67
2023/09/28 10:18:46;;;;;;;10.95;6.15;;;;;;;25.83;39.61;100268.31;4455896;32;34850;-67
2023/09/28 10:21:15;;;;;;;12.00;6.25;;;;;;;25.82;39.73;100270.22;4458537;32;33405;-67
2023/09/28 10:23:42;;;;;;;9.13;6.90;;;;;;;25.86;39.68;100267.84;4444588;32;32720;-67
2023/09/28 10:26:18;;;;;;;9.18;6.43;;;;;;;25.85;39.61;100263.47;4483024;32;33972;-67
2023/09/28 10:29:06;;;;;;;11.12;5.90;;;;;;;25.85;39.72;100264.28;4469973;32;33953;-67
2023/09/28 10:31:39;;;;;;;9.40;5.78;;;;;;;25.87;39.86;100264.03;4469770;32;32503;-68
2023/09/28 10:34:27;;;;;;;11.75;6.40;;;;;;;25.85;40.04;100266.19;4463587;31;34197;-66
2023/09/28 10:37:18;;;;;;;11.25;6.03;;;;;;;25.86;40.05;100263.22;4486002;31;33627;-67
2023/09/28 10:39:53;;;;;;;12.60;6.53;;;;;;;25.88;39.96;100261.09;4485864;31;34021;-67
2023/09/28 10:42:24;;;;;;;14.20;6.32;;;;;;;25.89;39.98;100264.66;4486385;31;34446;-67
2023/09/28 10:44:55;;;;;;;10.25;5.97;;;;;;;25.90;39.89;100263.59;4499894;31;33974;-67
2023/09/28 10:47:23;;;;;;;8.50;6.03;;;;;;;25.93;39.76;100265.88;4459786;31;33187;-67
2023/09/28 10:49:58;;;;;;;10.68;5.93;;;;;;;25.92;39.57;100258.72;4472918;31;34800;-67
2023/09/28 10:52:25;;;;;;;11.93;6.37;;;;;;;25.98;39.50;100252.34;4485869;31;33269;-67
2023/09/28 10:54:54;;;;;;;12.60;6.28;;;;;;;26.04;39.44;100253.31;4485766;31;33480;-68
2023/09/28 10:57:31;;;;;;;9.45;5.78;;;;;;;26.01;39.59;100251.84;4485542;31;32269;-67
2023/09/28 11:00:00;;;;;;;11.43;5.97;;;;;;;26.02;39.61;100252.69;4459885;31;33109;-67
2023/09/28 11:02:34;;;;;;;;;;;;;;;26.00;39.66;100250.19;4486343;31;33642;-68
2023/09/28 11:05:02;;;;;;;12.65;6.15;;;;;;;26.07;39.52;100245.47;4485900;31;34155;-67
2023/09/28 11:07:30;;;;;;;13.40;6.43;;;;;;;25.99;39.71;100243.06;4459801;31;33907;-68
2023/09/28 11:09:58;;;;;;;10.18;5.78;;;;;;;26.01;39.63;100238.19;4485704;31;34844;-68
2023/09/28 11:12:28;;;;;;;11.73;6.28;;;;;;;25.99;39.61;100236.75;4472629;31;32887;-68
2023/09/28 11:14:58;;;;;;;15.10;6.28;;;;;;;26.01;39.31;100234.63;4485945;31;34402;-68
2023/09/28 11:17:26;;;;;;;12.32;6.45;;;;;;;26.02;39.34;100236.28;4499756;31;34788;-67
2023/09/28 11:19:56;;;;;;;10.63;5.95;;;;;;;26.02;39.31;100233.53;4472756;31;34874;-67
2023/09/28 11:22:23;;;;;;;10.77;5.47;;;;;;;26.00;39.27;100238.44;4486065;31;34559;-67
2023/09/28 11:24:51;;;;;;;10.85;6.00;;;;;;;26.02;39.28;100228.06;4499918;31;34008;-67
2023/09/28 11:27:19;;;;;;;9.30;5.30;;;;;;;26.10;39.03;100234.03;4485373;31;34844;-67
2023/09/28 11:29:55;;;;;;;8.85;5.72;;;;;;;26.16;38.77;100226.78;4472392;31;32907;-67
2023/09/28 11:32:22;;;;;;;15.80;6.12;;;;;;;26.16;38.70;100221.34;4472790;31;33611;-68